createdAt,value
2022-11-30T00:09:58.239Z,0.00
2022-11-30T00:24:58.821Z,0.00
2022-11-30T00:39:58.599Z,0.00
2022-11-30T00:55:03.738Z,0.00
2022-11-30T01:10:05.000Z,0.00
2022-11-30T01:25:05.727Z,0.00
2022-11-30T01:40:05.903Z,0.00
2022-11-30T01:55:07.736Z,0.00
2022-11-30T02:10:09.224Z,0.00
2022-11-30T02:25:11.006Z,0.00
2022-11-30T02:40:11.362Z,0.00
2022-11-30T02:55:11.671Z,0.00
2022-11-30T03:10:11.922Z,0.00
2022-11-30T03:25:13.501Z,0.00
2022-11-30T03:40:14.072Z,0.00
2022-11-30T03:55:14.735Z,0.00
2022-11-30T04:10:16.244Z,0.00
2022-11-30T04:25:16.479Z,0.00
2022-11-30T04:40:16.664Z,0.00
2022-11-30T04:55:17.222Z,0.00
2022-11-30T05:10:19.047Z,0.00
2022-11-30T05:25:21.083Z,0.00
2022-11-30T05:40:21.612Z,0.00
2022-11-30T05:55:22.246Z,0.00
2022-11-30T06:10:22.893Z,0.00
2022-11-30T06:25:24.006Z,0.00
2022-11-30T06:40:25.135Z,16.00
2022-11-30T06:55:25.038Z,40.00
2022-11-30T07:10:25.317Z,100.00
2022-11-30T07:25:25.723Z,240.00
2022-11-30T07:40:26.603Z,448.00
2022-11-30T07:55:27.077Z,584.00
2022-11-30T08:10:27.658Z,728.00
2022-11-30T08:25:28.286Z,1000.00
2022-11-30T08:40:29.411Z,1236.00
2022-11-30T08:55:29.544Z,1528.00
2022-11-30T09:10:30.260Z,1792.00
2022-11-30T09:25:30.892Z,2032.00
2022-11-30T09:40:35.532Z,2500.00
2022-11-30T09:55:36.532Z,3100.00
2022-11-30T10:10:37.650Z,3492.00
2022-11-30T10:25:38.363Z,3836.00
2022-11-30T10:40:39.206Z,3404.00
2022-11-30T10:55:40.131Z,3372.00
2022-11-30T11:10:40.939Z,3400.00
2022-11-30T11:25:41.029Z,3956.00
2022-11-30T11:40:41.113Z,3552.00
2022-11-30T11:55:41.741Z,3356.00
2022-11-30T12:10:51.644Z,2908.00
2022-11-30T12:25:48.522Z,2908.00
2022-11-30T12:40:48.767Z,2384.00
2022-11-30T12:55:49.125Z,1964.00
2022-11-30T13:10:49.174Z,1896.00
2022-11-30T13:40:54.993Z,1900.00
2022-11-30T13:55:55.045Z,1432.00
2022-11-30T14:10:55.180Z,864.00
2022-11-30T14:25:56.055Z,616.00
2022-11-30T14:40:56.754Z,352.00
2022-11-30T14:55:56.804Z,132.00
2022-11-30T15:10:57.383Z,24.00
2022-11-30T15:25:58.249Z,4.00
2022-11-30T15:41:02.987Z,0.00
2022-11-30T15:56:04.325Z,0.00
2022-11-30T16:11:07.805Z,0.00
2022-11-30T16:26:18.296Z,0.00
2022-11-30T16:41:14.465Z,0.00
2022-11-30T16:56:14.942Z,0.00
2022-11-30T17:11:16.837Z,0.00
2022-11-30T17:26:17.356Z,0.00
2022-11-30T17:41:19.637Z,0.00
2022-11-30T17:56:20.684Z,0.00
2022-11-30T18:11:22.268Z,0.00
2022-11-30T18:26:22.812Z,0.00
2022-11-30T18:41:23.475Z,0.00
2022-11-30T18:56:23.703Z,0.00
2022-11-30T19:11:24.748Z,0.00
2022-11-30T19:26:25.331Z,0.00
2022-11-30T19:41:26.243Z,0.00
2022-11-30T19:56:27.017Z,0.00
2022-11-30T20:11:27.315Z,0.00
2022-11-30T20:26:27.972Z,0.00
2022-11-30T20:41:28.038Z,0.00
2022-11-30T20:56:28.328Z,0.00
2022-11-30T21:11:28.562Z,0.00
2022-11-30T21:26:28.501Z,0.00
2022-11-30T21:41:29.156Z,0.00
2022-11-30T21:56:29.784Z,0.00
2022-11-30T22:11:30.389Z,0.00
2022-11-30T22:26:30.489Z,0.00
2022-11-30T22:41:31.101Z,0.00
2022-11-30T22:56:30.815Z,0.00
2022-11-30T23:11:31.301Z,0.00
2022-11-30T23:26:31.672Z,0.00
2022-11-30T23:41:32.314Z,0.00
2022-11-30T23:56:34.676Z,0.00
